Time;durP1;ratioP1;P1;durP2;ratioP2;P2;SDS_P1;SDS_P2;PMS_P1;PMS_P2;Temp;Humidity;BMP_temperature;BMP_pressure;BME280_temperature;BME280_humidity;BME280_pressure;Samples;Min_cycle;Max_cycle;Signal;HPM_P1;HPM_P2
2024/02/11 00:01:43;;;;;;;11.9;6.3;;;;;;;10.53;67.13477;909.4777;;;;
2024/02/11 00:04:09;;;;;;;8;4.4;;;;;;;10.58;66.68652;909.5347;;;;
2024/02/11 00:06:34;;;;;;;102.8;51;;;;;;;10.81;65.68164;909.4981;;;;
2024/02/11 00:08:59;;;;;;;58.8;28.8;;;;;;;10.69;66.29102;909.5313;;;;
2024/02/11 00:11:24;;;;;;;32.2;16.4;;;;;;;10.69;66.73633;909.5399;;;;
2024/02/11 00:13:49;;;;;;;22;11.3;;;;;;;10.64;66.48828;909.4304;;;;
2024/02/11 00:16:20;;;;;;;21.3;10.3;;;;;;;10.53;67.00977;909.6019;;;;
2024/02/11 00:18:44;;;;;;;24;12.4;;;;;;;10.57;67.46094;909.5671;;;;
2024/02/11 00:21:09;;;;;;;69;34.6;;;;;;;10.54;67.66211;909.5833;;;;
2024/02/11 00:23:34;;;;;;;56;29.2;;;;;;;10.49;67.79004;909.5828;;;;
2024/02/11 00:26:01;;;;;;;40.7;22.4;;;;;;;10.44;67.98828;909.5701;;;;
2024/02/11 00:28:25;;;;;;;25.1;13.7;;;;;;;10.44;68.66211;909.5566;;;;
2024/02/11 00:30:49;;;;;;;10.1;6.2;;;;;;;10.44;68.92285;909.6267;;;;
2024/02/11 00:33:14;;;;;;;7.2;4.5;;;;;;;10.43;69.02637;909.6412;;;;
2024/02/11 00:35:40;;;;;;;11;6;;;;;;;10.37;69.44922;909.7053;;;;
2024/02/11 00:38:05;;;;;;;7.6;4.2;;;;;;;10.36;69.37988;909.6897;;;;
2024/02/11 00:40:30;;;;;;;4.5;2.7;;;;;;;10.41;68.39355;909.6859;;;;
2024/02/11 00:42:55;;;;;;;3.1;2.1;;;;;;;10.41;67.92578;909.8074;;;;
2024/02/11 00:45:31;;;;;;;4.5;2.8;;;;;;;10.43;68.14551;909.7999;;;;
2024/02/11 00:48:04;;;;;;;13.6;7;;;;;;;10.43;69.08301;909.8481;;;;
2024/02/11 00:50:21;;;;;;;8.2;5.3;;;;;;;10.42;70.0293;909.823;;;;
2024/02/11 00:52:48;;;;;;;7.7;3.9;;;;;;;10.41;70.63086;909.8424;;;;
2024/02/11 00:55:11;;;;;;;3.4;2.3;;;;;;;10.45;70.70508;909.8276;;;;
2024/02/11 00:57:37;;;;;;;2.1;1.4;;;;;;;10.49;70.31348;909.8502;;;;
2024/02/11 01:00:01;;;;;;;3.4;2.2;;;;;;;10.49;70.08496;909.9313;;;;
2024/02/11 01:02:29;;;;;;;7.3;3.9;;;;;;;10.39;72.51172;909.9647;;;;
2024/02/11 01:04:53;;;;;;;18.6;8.9;;;;;;;10.34;73.94043;909.9149;;;;
2024/02/11 01:07:17;;;;;;;9.1;4.5;;;;;;;10.34;73.91797;909.9721;;;;
2024/02/11 01:09:42;;;;;;;12.1;5.5;;;;;;;10.31;75.82031;910.1248;;;;
2024/02/11 01:12:07;;;;;;;5.8;2.8;;;;;;;10.16;76.98926;910.0811;;;;
2024/02/11 01:14:32;;;;;;;4.5;2.2;;;;;;;10.14;77.04492;910.0173;;;;
2024/02/11 01:16:57;;;;;;;2.8;2;;;;;;;10.13;76.23145;910.1563;;;;
2024/02/11 01:19:23;;;;;;;3.1;1.8;;;;;;;10.12;76.35547;910.0842;;;;
2024/02/11 01:21:53;;;;;;;2.3;1.6;;;;;;;10.12;76.66406;910.197;;;;
2024/02/11 01:24:16;;;;;;;1.7;1.4;;;;;;;10.09;76.98926;910.2617;;;;
2024/02/11 01:26:40;;;;;;;2.1;1.6;;;;;;;10.14;76.61133;910.298;;;;
2024/02/11 01:29:05;;;;;;;2.7;1.6;;;;;;;10.1;77.90332;910.3162;;;;
2024/02/11 01:31:30;;;;;;;2.6;1.7;;;;;;;10.07;78.71973;910.3577;;;;
2024/02/11 01:33:55;;;;;;;3.8;2.3;;;;;;;10.04;78.67969;910.3111;;;;
2024/02/11 01:36:20;;;;;;;24.9;10.4;;;;;;;10.03;78.59766;910.3128;;;;
2024/02/11 01:38:45;;;;;;;27;11.6;;;;;;;10.03;79.57813;910.3574;;;;
2024/02/11 01:41:10;;;;;;;19.5;8.1;;;;;;;10.03;80.17188;910.4051;;;;
2024/02/11 01:43:36;;;;;;;16.2;7.3;;;;;;;10.02;80.53516;910.4501;;;;
2024/02/11 01:46:01;;;;;;;8.8;4.6;;;;;;;10;80.94238;910.4442;;;;
2024/02/11 01:48:26;;;;;;;8.1;3.4;;;;;;;9.98;80.53906;910.4447;;;;
2024/02/11 01:50:56;;;;;;;11.8;5.8;;;;;;;10.01;80.3623;910.4397;;;;
2024/02/11 01:53:18;;;;;;;10.2;5;;;;;;;10.01;80.13574;910.4462;;;;
2024/02/11 01:55:44;;;;;;;6.1;2.5;;;;;;;10.04;80.7207;910.5328;;;;
2024/02/11 01:58:09;;;;;;;5.9;2.8;;;;;;;10.03;80.81055;910.4766;;;;
2024/02/11 02:00:35;;;;;;;15.7;6.7;;;;;;;10;81.10156;910.5339;;;;
2024/02/11 02:02:59;;;;;;;10.3;4.9;;;;;;;10.03;81.62012;910.5912;;;;
2024/02/11 02:05:24;;;;;;;6.3;2.9;;;;;;;9.95;82.74512;910.5571;;;;
2024/02/11 02:07:53;;;;;;;5.2;2.5;;;;;;;9.96;82.71387;910.6225;;;;
2024/02/11 02:10:14;;;;;;;2.6;1.6;;;;;;;9.98;82.61523;910.6259;;;;
2024/02/11 02:12:40;;;;;;;1.7;0.9;;;;;;;10.01;83.11035;910.613;;;;
2024/02/11 02:15:05;;;;;;;1.1;0.8;;;;;;;10.04;83.11523;910.5614;;;;
2024/02/11 02:17:30;;;;;;;0.6;0.5;;;;;;;10;83.67871;910.5956;;;;
2024/02/11 02:19:55;;;;;;;3.2;1.3;;;;;;;9.99;84.08789;910.5787;;;;
2024/02/11 02:22:20;;;;;;;4.3;2;;;;;;;9.9;84.37793;910.6522;;;;
2024/02/11 02:24:47;;;;;;;2.2;1.2;;;;;;;9.94;84.71582;910.613;;;;
2024/02/11 02:27:11;;;;;;;1.4;0.9;;;;;;;9.96;84.66406;910.6288;;;;
2024/02/11 02:29:36;;;;;;;9.9;5.1;;;;;;;9.93;84.70215;910.6656;;;;
2024/02/11 02:33:25;;;;;;;7.6;4.4;;;;;;;9.84;85.62109;910.713;;;;
2024/02/11 02:35:50;;;;;;;3.5;2.2;;;;;;;9.84;86.03027;910.7625;;;;
2024/02/11 02:38:15;;;;;;;2.4;1.3;;;;;;;9.85;86.19141;910.7463;;;;
2024/02/11 02:40:41;;;;;;;4.1;3.7;;;;;;;9.8;86.87793;910.7903;;;;
2024/02/11 02:43:10;;;;;;;5.9;5.3;;;;;;;9.78;87.22754;910.803;;;;
2024/02/11 02:45:32;;;;;;;6.4;5.5;;;;;;;9.73;87.87891;910.7933;;;;
2024/02/11 02:47:57;;;;;;;4.9;3.2;;;;;;;9.73;87.81055;910.76;;;;
2024/02/11 02:50:23;;;;;;;2.7;2.1;;;;;;;9.73;88.62891;910.7896;;;;
2024/02/11 02:52:48;;;;;;;1.5;1.2;;;;;;;9.68;88.1875;910.7918;;;;
2024/02/11 02:55:13;;;;;;;1.6;1.1;;;;;;;9.66;88.47754;910.8069;;;;
2024/02/11 02:57:39;;;;;;;2.4;1.5;;;;;;;9.67;88.70801;910.7653;;;;
2024/02/11 03:00:05;;;;;;;1.4;1.1;;;;;;;9.68;89.00781;910.8331;;;;
2024/02/11 03:02:29;;;;;;;1.6;1;;;;;;;9.71;89.02637;910.8384;;;;
2024/02/11 03:04:54;;;;;;;1.5;0.6;;;;;;;9.69;89.5332;910.882;;;;
2024/02/11 03:07:25;;;;;;;0.7;0.6;;;;;;;9.69;90.14941;910.8519;;;;
2024/02/11 03:09:44;;;;;;;1.3;0.8;;;;;;;9.63;91.26367;910.8356;;;;
2024/02/11 03:12:09;;;;;;;1.5;0.9;;;;;;;9.58;91.01465;910.9256;;;;
2024/02/11 03:14:34;;;;;;;1.7;0.9;;;;;;;9.59;90.77734;910.9397;;;;
2024/02/11 03:17:00;;;;;;;1.3;0.9;;;;;;;9.61;90.57617;910.983;;;;
2024/02/11 03:19:26;;;;;;;1;0.9;;;;;;;9.55;91.56348;910.9769;;;;
2024/02/11 03:21:50;;;;;;;1.1;0.8;;;;;;;9.47;91.90137;911.0642;;;;
2024/02/11 03:24:15;;;;;;;1.1;0.6;;;;;;;9.49;92.31543;911.0708;;;;
2024/02/11 03:26:40;;;;;;;0.6;0.6;;;;;;;9.46;92.22949;911.125;;;;
2024/02/11 03:29:06;;;;;;;1.9;0.6;;;;;;;9.5;91.74805;911.1453;;;;
2024/02/11 03:31:30;;;;;;;0.7;0.7;;;;;;;9.54;91.58594;911.1708;;;;
2024/02/11 03:33:55;;;;;;;2;0.6;;;;;;;9.53;92.12012;911.1458;;;;
2024/02/11 03:36:20;;;;;;;3.8;1.2;;;;;;;9.4;93.71973;911.2305;;;;
2024/02/11 03:38:45;;;;;;;2.2;0.9;;;;;;;9.38;93.5332;911.2168;;;;
2024/02/11 03:41:12;;;;;;;1.7;0.7;;;;;;;9.36;93.59766;911.2802;;;;
2024/02/11 03:43:36;;;;;;;1.9;0.7;;;;;;;9.34;93.58203;911.2639;;;;
2024/02/11 03:46:02;;;;;;;0.9;0.7;;;;;;;9.3;94.38086;911.3367;;;;
2024/02/11 03:48:26;;;;;;;2.8;0.9;;;;;;;9.3;94.4834;911.4146;;;;
2024/02/11 03:50:51;;;;;;;1.8;1.1;;;;;;;9.33;94.75293;911.4073;;;;
2024/02/11 03:53:18;;;;;;;1.9;0.8;;;;;;;9.28;94.99121;911.3984;;;;
2024/02/11 03:55:41;;;;;;;1.1;0.9;;;;;;;9.28;95.22168;911.4903;;;;
2024/02/11 03:58:07;;;;;;;1.5;0.9;;;;;;;9.34;94.10449;911.4895;;;;
2024/02/11 04:02:27;;;;;;;3.1;1.1;;;;;;;9.32;93.80371;911.5425;;;;
2024/02/11 04:04:54;;;;;;;2.9;1;;;;;;;9.34;94.09277;911.5436;;;;
2024/02/11 04:07:20;;;;;;;1.2;0.8;;;;;;;9.35;93.97168;911.5408;;;;
2024/02/11 04:09:44;;;;;;;2.2;0.8;;;;;;;9.38;94.17285;911.5963;;;;
2024/02/11 04:12:10;;;;;;;1.8;0.7;;;;;;;9.4;94.5752;911.5917;;;;
2024/02/11 04:14:34;;;;;;;1.2;0.7;;;;;;;9.38;94.26367;911.5613;;;;
2024/02/11 04:16:59;;;;;;;1.5;0.7;;;;;;;9.41;94.13281;911.6781;;;;
2024/02/11 04:19:25;;;;;;;0.5;0.5;;;;;;;9.41;94.78027;911.7059;;;;
2024/02/11 04:21:49;;;;;;;1.1;0.7;;;;;;;9.4;94.59668;911.7158;;;;
2024/02/11 04:24:15;;;;;;;1;0.8;;;;;;;9.34;95.56348;911.7991;;;;
2024/02/11 04:26:39;;;;;;;2.3;0.8;;;;;;;9.29;95.45996;911.791;;;;
2024/02/11 04:29:04;;;;;;;2.4;1.1;;;;;;;9.33;95.07227;911.8137;;;;
2024/02/11 04:31:31;;;;;;;2.1;0.9;;;;;;;9.35;94.3584;911.856;;;;
2024/02/11 04:33:54;;;;;;;1.9;1.1;;;;;;;9.38;94.74219;911.856;;;;
2024/02/11 04:36:19;;;;;;;1.3;1.2;;;;;;;9.34;95.33398;911.9351;;;;
2024/02/11 04:38:47;;;;;;;4.1;1.1;;;;;;;9.27;95.91211;911.8758;;;;
2024/02/11 04:41:10;;;;;;;4;1.6;;;;;;;9.23;96.3916;911.9899;;;;
2024/02/11 04:43:36;;;;;;;5;1.4;;;;;;;9.15;96.47949;911.9692;;;;
2024/02/11 04:46:02;;;;;;;3.2;1;;;;;;;9.1;96.71582;911.9565;;;;
2024/02/11 04:48:26;;;;;;;0.6;0.6;;;;;;;9.14;95.87207;911.9966;;;;
2024/02/11 04:50:50;;;;;;;1.4;0.6;;;;;;;9.18;96.1875;912.0693;;;;
2024/02/11 04:53:18;;;;;;;0.9;0.7;;;;;;;9.18;96.19922;912.0726;;;;
2024/02/11 04:55:43;;;;;;;1.3;0.6;;;;;;;9.14;95.69922;912.1221;;;;
2024/02/11 04:58:07;;;;;;;0.7;0.7;;;;;;;9.16;96.10352;912.1588;;;;
2024/02/11 05:00:33;;;;;;;1.9;0.8;;;;;;;9.1;97.09375;912.2025;;;;
2024/02/11 05:02:58;;;;;;;1.1;0.8;;;;;;;9.07;97.19727;912.1995;;;;
2024/02/11 05:05:25;;;;;;;2.8;0.7;;;;;;;9.09;97.62402;912.2559;;;;
2024/02/11 05:07:47;;;;;;;2.1;1;;;;;;;9.16;95.5459;912.2461;;;;
2024/02/11 05:10:13;;;;;;;1;0.8;;;;;;;9.13;95.40332;912.235;;;;
2024/02/11 05:12:37;;;;;;;1.2;0.7;;;;;;;9.19;95.72266;912.277;;;;
2024/02/11 05:15:03;;;;;;;1.4;0.8;;;;;;;9.23;95.41406;912.327;;;;
2024/02/11 05:17:29;;;;;;;0.6;0.6;;;;;;;9.19;95.35645;912.3558;;;;
2024/02/11 05:19:53;;;;;;;0.5;0.5;;;;;;;9.2;94.0293;912.3508;;;;
2024/02/11 05:22:18;;;;;;;0.5;0.4;;;;;;;9.17;91.79004;912.3293;;;;
2024/02/11 05:24:45;;;;;;;0.3;0.3;;;;;;;9.14;87.90527;912.3483;;;;
2024/02/11 05:27:09;;;;;;;0.4;0.2;;;;;;;9.08;89.09863;912.3596;;;;
2024/02/11 05:29:34;;;;;;;0.3;0.3;;;;;;;9.09;89.40625;912.4006;;;;
2024/02/11 05:31:59;;;;;;;1;0.4;;;;;;;9.09;90.05469;912.4482;;;;
2024/02/11 05:34:24;;;;;;;0.3;0.3;;;;;;;9.04;91.53613;912.4258;;;;
2024/02/11 05:36:49;;;;;;;0.4;0.3;;;;;;;8.99;92.01563;912.4386;;;;
2024/02/11 05:39:14;;;;;;;0.2;0.2;;;;;;;9.03;88.74609;912.4483;;;;
2024/02/11 05:41:41;;;;;;;0.1;0.1;;;;;;;9.04;88.48828;912.474;;;;
2024/02/11 05:44:04;;;;;;;0.2;0.2;;;;;;;8.98;88.4873;912.4825;;;;
2024/02/11 05:46:29;;;;;;;0.7;0.2;;;;;;;8.98;88.87402;912.514;;;;
2024/02/11 05:48:54;;;;;;;0.3;0.3;;;;;;;9.1;88.97754;912.5391;;;;
2024/02/11 05:51:20;;;;;;;0.4;0.4;;;;;;;9.13;89.73633;912.57;;;;
2024/02/11 05:53:46;;;;;;;0.4;0.4;;;;;;;9.05;90.40234;912.6023;;;;
2024/02/11 05:56:10;;;;;;;0.8;0.5;;;;;;;8.97;90.98828;912.671;;;;
2024/02/11 05:58:35;;;;;;;0.5;0.5;;;;;;;8.95;91.58496;912.7079;;;;
2024/02/11 06:01:00;;;;;;;1.4;0.7;;;;;;;8.95;91.87109;912.7411;;;;
2024/02/11 06:03:25;;;;;;;0.4;0.4;;;;;;;8.92;92.09277;912.803;;;;
2024/02/11 06:05:51;;;;;;;0.4;0.4;;;;;;;8.85;92.39648;912.8589;;;;
2024/02/11 06:08:16;;;;;;;0.7;0.6;;;;;;;8.83;92.11719;912.8775;;;;
2024/02/11 06:10:41;;;;;;;0.7;0.7;;;;;;;8.84;92.0625;912.8924;;;;
2024/02/11 06:13:07;;;;;;;0.6;0.5;;;;;;;8.78;92.34473;912.942;;;;
2024/02/11 06:15:31;;;;;;;0.3;0.3;;;;;;;8.78;92.07129;912.908;;;;
2024/02/11 06:17:57;;;;;;;1.5;0.3;;;;;;;8.72;92.02832;913.0236;;;;
2024/02/11 06:20:21;;;;;;;2.6;0.3;;;;;;;8.74;91.96387;913.0492;;;;
2024/02/11 06:22:46;;;;;;;0.4;0.2;;;;;;;8.71;92.22852;913.1555;;;;
2024/02/11 06:25:11;;;;;;;0.8;0.4;;;;;;;8.78;91.60742;913.1982;;;;
2024/02/11 06:27:36;;;;;;;0.4;0.4;;;;;;;8.8;90.91699;913.2239;;;;
2024/02/11 06:30:08;;;;;;;6.5;4.2;;;;;;;8.7;90.9082;913.2455;;;;
2024/02/11 06:32:28;;;;;;;10.3;6.5;;;;;;;8.71;90.45508;913.2167;;;;
2024/02/11 06:34:54;;;;;;;6.2;3.9;;;;;;;8.69;90.69043;913.3741;;;;
2024/02/11 06:37:19;;;;;;;3;2.3;;;;;;;8.72;91.31152;913.4297;;;;
2024/02/11 06:39:44;;;;;;;10;8.7;;;;;;;8.65;91.4082;913.5083;;;;
2024/02/11 06:42:10;;;;;;;7.3;6;;;;;;;8.67;90.24316;913.4919;;;;
2024/02/11 06:44:34;;;;;;;2.3;1.9;;;;;;;8.63;89.96094;913.4581;;;;
2024/02/11 06:46:59;;;;;;;1.2;1.1;;;;;;;8.63;90.19922;913.5842;;;;
2024/02/11 06:49:25;;;;;;;4.1;1.8;;;;;;;8.54;91.04395;913.6161;;;;
2024/02/11 06:51:51;;;;;;;1.3;1.2;;;;;;;8.61;90.85449;913.7033;;;;
2024/02/11 06:54:15;;;;;;;1;0.9;;;;;;;8.66;90.28613;913.8491;;;;
2024/02/11 06:56:40;;;;;;;1;0.7;;;;;;;8.61;90.57031;913.9756;;;;
2024/02/11 06:59:06;;;;;;;0.4;0.4;;;;;;;8.64;87.88184;913.8981;;;;
2024/02/11 07:01:31;;;;;;;0.5;0.5;;;;;;;8.54;86.02246;913.8658;;;;
2024/02/11 07:03:57;;;;;;;0.8;0.3;;;;;;;8.56;85.96777;913.9497;;;;
2024/02/11 07:06:21;;;;;;;0.3;0.3;;;;;;;8.58;84.5293;914.0474;;;;
2024/02/11 07:08:46;;;;;;;0.5;0.5;;;;;;;8.58;86.0293;914.0966;;;;
2024/02/11 07:11:16;;;;;;;0.8;0.8;;;;;;;8.51;88.44727;914.1227;;;;
2024/02/11 07:13:41;;;;;;;0.3;0.3;;;;;;;8.52;87.29004;914.1511;;;;
2024/02/11 07:16:08;;;;;;;0.5;0.5;;;;;;;8.57;86.8125;914.242;;;;
2024/02/11 07:18:30;;;;;;;1.2;1;;;;;;;8.48;87.97559;914.2264;;;;
2024/02/11 07:20:56;;;;;;;0.3;0.3;;;;;;;8.49;83.21582;914.1685;;;;
2024/02/11 07:23:21;;;;;;;1.4;1;;;;;;;8.53;84.73438;914.3078;;;;
2024/02/11 07:25:45;;;;;;;3.4;2.4;;;;;;;8.45;85.08203;914.3856;;;;
2024/02/11 07:28:11;;;;;;;3.2;2.4;;;;;;;8.64;84.71094;914.3906;;;;
2024/02/11 07:30:36;;;;;;;1.5;1.4;;;;;;;8.56;84.28516;914.4103;;;;
2024/02/11 07:33:01;;;;;;;0.8;0.8;;;;;;;8.42;82.32715;914.4315;;;;
2024/02/11 07:35:26;;;;;;;0.2;0.2;;;;;;;8.41;80.18848;914.4244;;;;
2024/02/11 07:37:51;;;;;;;0.2;0.2;;;;;;;8.47;80.96094;914.5114;;;;
2024/02/11 07:40:16;;;;;;;0.3;0.3;;;;;;;8.53;84.68945;914.6345;;;;
2024/02/11 07:42:41;;;;;;;0.8;0.4;;;;;;;8.45;87.39063;914.7369;;;;
2024/02/11 07:45:06;;;;;;;0.6;0.6;;;;;;;8.33;89.10352;914.6057;;;;
2024/02/11 07:47:33;;;;;;;2;1.8;;;;;;;8.47;88.30176;914.7905;;;;
2024/02/11 07:49:57;;;;;;;4.6;3.6;;;;;;;8.47;89.22168;914.8159;;;;
2024/02/11 07:52:23;;;;;;;4;2.9;;;;;;;8.37;89.14453;914.8161;;;;
2024/02/11 07:54:48;;;;;;;2.1;1.5;;;;;;;8.47;87.87012;914.9055;;;;
2024/02/11 07:57:15;;;;;;;1.3;1.2;;;;;;;8.46;87.51758;914.9794;;;;
2024/02/11 07:59:39;;;;;;;0.6;0.6;;;;;;;8.5;87.36426;914.9731;;;;
2024/02/11 08:02:04;;;;;;;2.8;2.2;;;;;;;8.51;87.90332;915.0179;;;;
2024/02/11 08:04:30;;;;;;;3.4;2.3;;;;;;;8.61;87.44629;915.101;;;;
2024/02/11 08:06:54;;;;;;;2.2;2;;;;;;;8.49;87.72559;915.1303;;;;
2024/02/11 08:09:19;;;;;;;1.6;1.5;;;;;;;8.48;88.28027;915.209;;;;
2024/02/11 08:11:44;;;;;;;1.5;1.3;;;;;;;8.44;89.36426;915.1742;;;;
2024/02/11 08:14:10;;;;;;;1.1;1;;;;;;;8.48;87.99707;915.3025;;;;
2024/02/11 08:16:35;;;;;;;2.3;1.2;;;;;;;8.44;88.31836;915.2202;;;;
2024/02/11 08:19:00;;;;;;;0.7;0.7;;;;;;;8.48;84.09863;915.2344;;;;
2024/02/11 08:21:26;;;;;;;0.8;0.8;;;;;;;8.52;85.0166;915.2986;;;;
2024/02/11 08:23:50;;;;;;;0.6;0.6;;;;;;;8.37;85.78223;915.2631;;;;
2024/02/11 08:26:15;;;;;;;0.6;0.6;;;;;;;8.36;85.51855;915.3261;;;;
2024/02/11 08:28:40;;;;;;;0.8;0.5;;;;;;;8.35;82.8252;915.3461;;;;
2024/02/11 08:31:06;;;;;;;0.7;0.7;;;;;;;8.41;82.97363;915.3864;;;;
2024/02/11 08:33:31;;;;;;;0.5;0.5;;;;;;;8.45;83.77539;915.4594;;;;
2024/02/11 08:35:56;;;;;;;0.5;0.5;;;;;;;8.42;83.94043;915.5336;;;;
2024/02/11 08:38:21;;;;;;;0.9;0.7;;;;;;;8.44;83.43457;915.5356;;;;
2024/02/11 08:40:46;;;;;;;1.6;0.9;;;;;;;8.49;82.81836;915.5259;;;;
2024/02/11 08:43:11;;;;;;;0.8;0.8;;;;;;;8.51;82.85645;915.6128;;;;
2024/02/11 08:45:36;;;;;;;0.9;0.9;;;;;;;;;;;;;
2024/02/11 08:48:01;;;;;;;0.6;0.6;;;;;;;;;;;;;
2024/02/11 08:50:27;;;;;;;0.9;0.7;;;;;;;;;;;;;
2024/02/11 08:52:52;;;;;;;0.6;0.6;;;;;;;;;;;;;
2024/02/11 08:55:17;;;;;;;0.9;0.9;;;;;;;;;;;;;
2024/02/11 08:57:42;;;;;;;0.8;0.6;;;;;;;;;;;;;
2024/02/11 09:00:12;;;;;;;0.5;0.5;;;;;;;;;;;;;
2024/02/11 09:02:32;;;;;;;0.9;0.4;;;;;;;;;;;;;
2024/02/11 09:04:58;;;;;;;0.8;0.7;;;;;;;;;;;;;
2024/02/11 09:07:22;;;;;;;1.2;0.9;;;;;;;;;;;;;
2024/02/11 09:09:47;;;;;;;0.5;0.5;;;;;;;;;;;;;
2024/02/11 09:12:14;;;;;;;0.4;0.4;;;;;;;;;;;;;
2024/02/11 09:14:39;;;;;;;0.6;0.6;;;;;;;;;;;;;
2024/02/11 09:17:03;;;;;;;0.6;0.6;;;;;;;;;;;;;
2024/02/11 09:19:28;;;;;;;0.8;0.8;;;;;;;;;;;;;
2024/02/11 09:21:53;;;;;;;0.7;0.7;;;;;;;;;;;;;
2024/02/11 09:24:18;;;;;;;0.8;0.7;;;;;;;;;;;;;
2024/02/11 09:26:43;;;;;;;1.8;1.3;;;;;;;;;;;;;
2024/02/11 09:29:08;;;;;;;1.3;1.2;;;;;;;;;;;;;
2024/02/11 09:31:33;;;;;;;0.6;0.6;;;;;;;;;;;;;
2024/02/11 09:33:58;;;;;;;0.4;0.4;;;;;;;;;;;;;
2024/02/11 09:36:23;;;;;;;0.4;0.4;;;;;;;;;;;;;
2024/02/11 09:38:49;;;;;;;0.7;0.7;;;;;;;;;;;;;
2024/02/11 09:41:14;;;;;;;1.4;0.8;;;;;;;;;;;;;
2024/02/11 09:43:39;;;;;;;0.5;0.5;;;;;;;;;;;;;
2024/02/11 09:46:04;;;;;;;0.4;0.4;;;;;;;;;;;;;
2024/02/11 09:48:29;;;;;;;0.5;0.5;;;;;;;;;;;;;
2024/02/11 09:50:55;;;;;;;0.7;0.7;;;;;;;;;;;;;
2024/02/11 09:53:20;;;;;;;0.6;0.6;;;;;;;;;;;;;
2024/02/11 09:55:45;;;;;;;1.3;0.6;;;;;;;;;;;;;
2024/02/11 09:58:10;;;;;;;0.6;0.6;;;;;;;;;;;;;
2024/02/11 10:00:35;;;;;;;0.5;0.5;;;;;;;;;;;;;
2024/02/11 10:03:00;;;;;;;0.6;0.6;;;;;;;;;;;;;
2024/02/11 10:05:26;;;;;;;0.4;0.4;;;;;;;;;;;;;
2024/02/11 10:07:52;;;;;;;0.5;0.5;;;;;;;;;;;;;
2024/02/11 10:10:15;;;;;;;0.5;0.5;;;;;;;;;;;;;
2024/02/11 10:12:40;;;;;;;0.4;0.4;;;;;;;;;;;;;
2024/02/11 10:15:07;;;;;;;0.7;0.6;;;;;;;;;;;;;
2024/02/11 10:17:31;;;;;;;1.7;0.8;;;;;;;;;;;;;
2024/02/11 10:19:55;;;;;;;0.9;0.9;;;;;;;;;;;;;
2024/02/11 10:22:21;;;;;;;0.8;0.7;;;;;;;;;;;;;
2024/02/11 10:24:47;;;;;;;0.8;0.8;;;;;;;;;;;;;
2024/02/11 10:27:14;;;;;;;1;0.9;;;;;;;;;;;;;
2024/02/11 10:29:37;;;;;;;0.7;0.7;;;;;;;;;;;;;
2024/02/11 10:32:01;;;;;;;0.6;0.6;;;;;;;;;;;;;
2024/02/11 10:34:26;;;;;;;1.5;1;;;;;;;;;;;;;
2024/02/11 10:36:53;;;;;;;1.2;1.1;;;;;;;;;;;;;
2024/02/11 10:39:16;;;;;;;1.1;0.8;;;;;;;;;;;;;
2024/02/11 10:41:43;;;;;;;1.1;0.9;;;;;;;;;;;;;
2024/02/11 10:44:07;;;;;;;0.6;0.6;;;;;;;;;;;;;
2024/02/11 10:46:33;;;;;;;1.4;0.6;;;;;;;;;;;;;
2024/02/11 10:48:57;;;;;;;0.4;0.4;;;;;;;;;;;;;
2024/02/11 10:51:23;;;;;;;0.5;0.5;;;;;;;;;;;;;
2024/02/11 10:53:48;;;;;;;0.4;0.4;;;;;;;;;;;;;
2024/02/11 10:56:13;;;;;;;0.6;0.6;;;;;;;;;;;;;
2024/02/11 10:58:37;;;;;;;1.3;1;;;;;;;;;;;;;
2024/02/11 11:01:02;;;;;;;1.1;0.9;;;;;;;;;;;;;
2024/02/11 11:03:28;;;;;;;0.5;0.5;;;;;;;;;;;;;
2024/02/11 11:05:52;;;;;;;0.4;0.4;;;;;;;;;;;;;
2024/02/11 11:08:19;;;;;;;0.8;0.8;;;;;;;;;;;;;
2024/02/11 11:10:43;;;;;;;0.8;0.8;;;;;;;;;;;;;
2024/02/11 11:13:07;;;;;;;0.7;0.7;;;;;;;;;;;;;
2024/02/11 11:15:33;;;;;;;1.3;0.9;;;;;;;;;;;;;
2024/02/11 11:17:58;;;;;;;1.2;0.8;;;;;;;;;;;;;
2024/02/11 11:20:23;;;;;;;1.2;1.1;;;;;;;;;;;;;
2024/02/11 11:22:48;;;;;;;1.3;1.1;;;;;;;;;;;;;
2024/02/11 11:25:14;;;;;;;1.3;1.2;;;;;;;;;;;;;
2024/02/11 11:27:38;;;;;;;1;1;;;;;;;;;;;;;
2024/02/11 11:30:06;;;;;;;1.3;1.2;;;;;;;;;;;;;
2024/02/11 11:32:29;;;;;;;0.8;0.8;;;;;;;;;;;;;
2024/02/11 11:34:54;;;;;;;1.7;1;;;;;;;;;;;;;
2024/02/11 11:37:19;;;;;;;1.5;1.1;;;;;;;;;;;;;
2024/02/11 11:39:45;;;;;;;1.1;1;;;;;;;;;;;;;
2024/02/11 11:42:09;;;;;;;0.9;0.9;;;;;;;;;;;;;
2024/02/11 11:44:34;;;;;;;1.1;1;;;;;;;;;;;;;
2024/02/11 11:46:59;;;;;;;1.3;1.2;;;;;;;;;;;;;
2024/02/11 11:49:25;;;;;;;1.4;1.1;;;;;;;;;;;;;
2024/02/11 11:51:50;;;;;;;1.1;1;;;;;;;;;;;;;
2024/02/11 11:54:15;;;;;;;1;0.9;;;;;;;;;;;;;
2024/02/11 11:56:40;;;;;;;0.8;0.8;;;;;;;;;;;;;
2024/02/11 11:59:06;;;;;;;2.2;1.1;;;;;;;;;;;;;
2024/02/11 12:01:30;;;;;;;0.8;0.8;;;;;;;;;;;;;
2024/02/11 12:03:55;;;;;;;1.3;1.2;;;;;;;;;;;;;
2024/02/11 12:06:22;;;;;;;1.2;1.1;;;;;;;;;;;;;
2024/02/11 12:08:46;;;;;;;1.6;1.5;;;;;;;;;;;;;
2024/02/11 12:11:11;;;;;;;1.2;1.1;;;;;;;;;;;;;
2024/02/11 12:13:36;;;;;;;1.2;1.1;;;;;;;;;;;;;
2024/02/11 12:16:02;;;;;;;1.7;1.2;;;;;;;;;;;;;
2024/02/11 12:18:27;;;;;;;1.9;1.1;;;;;;;;;;;;;
2024/02/11 12:20:53;;;;;;;1.2;1;;;;;;;;;;;;;
2024/02/11 12:23:17;;;;;;;1.2;1.1;;;;;;;;;;;;;
2024/02/11 12:25:41;;;;;;;1;0.9;;;;;;;;;;;;;
2024/02/11 12:28:10;;;;;;;1.2;1.1;;;;;;;;;;;;;
2024/02/11 12:30:33;;;;;;;0.8;0.8;;;;;;;;;;;;;
2024/02/11 12:32:57;;;;;;;0.8;0.8;;;;;;;;;;;;;
2024/02/11 12:35:22;;;;;;;1.2;1.1;;;;;;;;;;;;;
2024/02/11 12:37:47;;;;;;;1.5;1.4;;;;;;;;;;;;;
2024/02/11 12:40:18;;;;;;;2.2;0.7;;;;;;;;;;;;;
2024/02/11 12:42:37;;;;;;;0.9;0.9;;;;;;;;;;;;;
2024/02/11 12:45:06;;;;;;;1;0.8;;;;;;;;;;;;;
2024/02/11 12:47:29;;;;;;;1.2;0.6;;;;;;;;;;;;;
2024/02/11 12:49:53;;;;;;;0.7;0.7;;;;;;;;;;;;;
2024/02/11 12:52:18;;;;;;;0.8;0.8;;;;;;;;;;;;;
2024/02/11 12:54:44;;;;;;;1.4;0.7;;;;;;;;;;;;;
2024/02/11 12:57:09;;;;;;;1;0.7;;;;;;;;;;;;;
2024/02/11 12:59:34;;;;;;;0.9;0.8;;;;;;;;;;;;;
2024/02/11 13:01:59;;;;;;;1.7;1.5;;;;;;;;;;;;;
2024/02/11 13:05:16;;;;;;;0.9;0.8;;;;;;;10.42;70.93066;917.1792;;;;
2024/02/11 13:07:41;;;;;;;1.8;1.7;;;;;;;10.33;71.07422;917.1788;;;;
2024/02/11 13:10:06;;;;;;;1.8;1.6;;;;;;;10.41;70.7793;917.1602;;;;
2024/02/11 13:12:38;;;;;;;1.3;1.1;;;;;;;10.43;70.68164;917.152;;;;
2024/02/11 13:14:56;;;;;;;0.8;0.8;;;;;;;10.32;69.79492;917.1083;;;;
2024/02/11 13:17:21;;;;;;;0.9;0.9;;;;;;;10.29;70.37207;917.1567;;;;
2024/02/11 13:19:47;;;;;;;0.8;0.8;;;;;;;10.4;71.09766;917.1772;;;;
2024/02/11 13:22:14;;;;;;;0.9;0.9;;;;;;;10.45;72.36035;917.2081;;;;
2024/02/11 13:24:37;;;;;;;0.8;0.8;;;;;;;10.43;72.26758;917.2285;;;;
2024/02/11 13:27:02;;;;;;;0.7;0.7;;;;;;;10.35;70.94141;917.2476;;;;
2024/02/11 13:29:27;;;;;;;0.9;0.9;;;;;;;10.36;72.33398;917.1987;;;;
2024/02/11 13:31:52;;;;;;;1.6;0.8;;;;;;;10.41;70.83691;917.2103;;;;
2024/02/11 13:34:17;;;;;;;0.7;0.7;;;;;;;10.43;72.14258;917.2371;;;;
2024/02/11 13:36:43;;;;;;;0.8;0.8;;;;;;;10.35;70.17676;917.2491;;;;
2024/02/11 13:39:08;;;;;;;0.8;0.7;;;;;;;10.42;70.74707;917.236;;;;
2024/02/11 13:41:33;;;;;;;0.9;0.9;;;;;;;10.42;69.45703;917.2383;;;;
2024/02/11 13:43:58;;;;;;;1.2;1.1;;;;;;;10.42;68.72656;917.2773;;;;
2024/02/11 13:46:23;;;;;;;1;0.8;;;;;;;10.31;69.75879;917.3035;;;;
2024/02/11 13:48:48;;;;;;;0.6;0.6;;;;;;;10.35;69.09277;917.2953;;;;
2024/02/11 13:51:13;;;;;;;1.2;1;;;;;;;10.21;68.56738;917.3375;;;;
2024/02/11 13:53:39;;;;;;;1;0.8;;;;;;;10.32;69.54492;917.3539;;;;
2024/02/11 13:56:19;;;;;;;0.7;0.7;;;;;;;10.2;68.56641;917.353;;;;
2024/02/11 13:58:31;;;;;;;0.8;0.8;;;;;;;10.26;69.39648;917.3745;;;;
2024/02/11 14:00:57;;;;;;;0.8;0.8;;;;;;;10.35;70.45117;917.3383;;;;
2024/02/11 14:03:21;;;;;;;1.4;0.7;;;;;;;10.37;69.95215;917.3672;;;;
2024/02/11 14:05:47;;;;;;;0.7;0.7;;;;;;;10.45;70.23926;917.3639;;;;
2024/02/11 14:08:12;;;;;;;1;0.9;;;;;;;10.4;68.49512;917.322;;;;
2024/02/11 14:10:37;;;;;;;1.6;0.9;;;;;;;10.37;68.93652;917.3997;;;;
2024/02/11 14:15:11;;;;;;;1.1;1;;;;;;;10.32;70.20508;917.444;;;;
2024/02/11 14:17:32;;;;;;;1.7;1;;;;;;;10.45;70.06738;917.4705;;;;
2024/02/11 14:19:57;;;;;;;2.1;1;;;;;;;10.42;69.41309;917.4736;;;;
2024/02/11 14:22:22;;;;;;;1.3;1.2;;;;;;;10.36;69.76758;917.5176;;;;
2024/02/11 14:26:09;;;;;;;1.5;1;;;;;;;10.43;69.81348;917.5291;;;;
2024/02/11 14:28:32;;;;;;;1.6;1.1;;;;;;;10.44;69.86035;917.5383;;;;
2024/02/11 14:31:00;;;;;;;0.8;0.8;;;;;;;10.4;70.05859;917.5519;;;;
2024/02/11 14:33:22;;;;;;;1.9;0.7;;;;;;;10.48;68.74805;917.563;;;;
2024/02/11 14:35:48;;;;;;;1.6;1;;;;;;;10.41;68.25684;917.652;;;;
2024/02/11 14:38:13;;;;;;;0.8;0.8;;;;;;;10.49;69.66309;917.6248;;;;
2024/02/11 14:40:38;;;;;;;0.8;0.8;;;;;;;10.55;69.74121;917.6703;;;;
2024/02/11 14:43:04;;;;;;;1.2;1;;;;;;;10.53;68.04883;917.7177;;;;
2024/02/11 14:45:28;;;;;;;1.3;1.1;;;;;;;10.48;68.50781;917.7983;;;;
2024/02/11 14:47:54;;;;;;;1.1;1;;;;;;;10.42;69.83398;917.7299;;;;
2024/02/11 14:50:21;;;;;;;1.2;0.9;;;;;;;10.44;68.84375;917.7708;;;;
2024/02/11 14:52:44;;;;;;;1.2;1;;;;;;;10.36;68.96875;917.7921;;;;
2024/02/11 14:55:09;;;;;;;0.8;0.8;;;;;;;10.37;69.38086;917.8484;;;;
2024/02/11 14:57:34;;;;;;;1.2;1.1;;;;;;;10.41;69.25;917.8167;;;;
2024/02/11 15:00:00;;;;;;;1.1;1;;;;;;;10.49;68.8877;917.7184;;;;
2024/02/11 15:02:27;;;;;;;1.6;1.1;;;;;;;10.39;69.24707;917.7389;;;;
2024/02/11 15:04:49;;;;;;;1.3;1.1;;;;;;;10.31;70.02344;917.8394;;;;
2024/02/11 15:07:14;;;;;;;1.3;0.9;;;;;;;10.32;70.30957;917.9084;;;;
2024/02/11 15:09:41;;;;;;;1.7;1.3;;;;;;;10.29;69.11719;917.8749;;;;
2024/02/11 15:12:05;;;;;;;1.5;1.4;;;;;;;10.24;71.19629;917.9142;;;;
2024/02/11 15:14:30;;;;;;;1.2;1.1;;;;;;;10.2;70.96191;917.9146;;;;
2024/02/11 15:16:55;;;;;;;1.6;1.1;;;;;;;10.15;70.39453;917.9459;;;;
2024/02/11 15:19:20;;;;;;;1.1;1;;;;;;;10.14;69.97266;917.9714;;;;
2024/02/11 15:21:46;;;;;;;1.7;1.1;;;;;;;10.21;69.50293;917.9211;;;;
2024/02/11 15:24:11;;;;;;;1.2;1.1;;;;;;;10.22;71.01074;918.0158;;;;
2024/02/11 15:26:36;;;;;;;1.4;1.2;;;;;;;10.15;70.55566;918.0237;;;;
2024/02/11 15:29:01;;;;;;;1.1;1;;;;;;;10.18;69.33887;917.86;;;;
2024/02/11 15:31:27;;;;;;;1.7;1.1;;;;;;;10.14;69.74316;917.9955;;;;
2024/02/11 15:33:51;;;;;;;1.3;1.2;;;;;;;10.14;70.74609;917.954;;;;
2024/02/11 15:36:16;;;;;;;2.3;1.7;;;;;;;10.15;70.50879;918.1129;;;;
2024/02/11 15:38:41;;;;;;;1.9;1.5;;;;;;;10.08;71.3877;918.1484;;;;
2024/02/11 15:41:09;;;;;;;1.4;1.3;;;;;;;9.96;72.07422;918.1834;;;;
2024/02/11 15:43:32;;;;;;;1.5;1.4;;;;;;;9.95;72.10645;918.1287;;;;
2024/02/11 15:45:58;;;;;;;2;1.4;;;;;;;9.95;71.38867;918.1964;;;;